KMKL/MKL METAR and TAF weather

Enter ICAO airport designator
Station Type Date Time Source
KMKL METAR 2020/12/06 01:53 UTC NOAA

KMKL 060153Z AUTO 34003KT 10SM CLR 04/02 A3011 RMK AO2 SLP197 T00390017


Station Type Date Time Source
KMKL Decoded METAR 2020/12/06 01:53 UTC NOAA

JACKSON MCKELLAR-SIPES RGNL, TN, United States (KMKL) 35-36N 088-55W 128M
Dec 05, 2020 - 08:53 PM EST / 2020.12.06 0153 UTC
Wind: from the NNW (340 degrees) at 3 MPH (3 KT):0
Visibility: 10 mile(s):0
Sky conditions: clear
Temperature: 39.0 F (3.9 C)
Dew Point: 35.1 F (1.7 C)
Relative Humidity: 85%
Pressure (altimeter): 30.11 in. Hg (1019 hPa)
ob: KMKL 060153Z AUTO 34003KT 10SM CLR 04/02 A3011 RMK AO2 SLP197 T00390017
cycle: 2

Station Type Date Time Source
KMKL TAF 2020/12/05 18:22 UTC NOAA

TAF KMKL 051720Z 0518/0618 30004KT P6SM SKC
FM060900 00000KT P6SM FEW250

Example: see airport list